sensor_id;sensor_type;location;lat;lon;timestamp;temperature;humidity
30186;DHT22;31152;49.190;8.122;2023-04-06T00:01:39;2.40;99.90
30186;DHT22;31152;49.190;8.122;2023-04-06T00:04:06;2.30;99.90
30186;DHT22;31152;49.190;8.122;2023-04-06T00:06:35;2.30;99.90
30186;DHT22;31152;49.190;8.122;2023-04-06T00:09:02;2.30;99.90
30186;DHT22;31152;49.190;8.122;2023-04-06T00:11:29;2.20;99.90
30186;DHT22;31152;49.190;8.122;2023-04-06T00:13:56;2.20;99.90
30186;DHT22;31152;49.190;8.122;2023-04-06T00:16:23;2.20;99.90
30186;DHT22;31152;49.190;8.122;2023-04-06T00:18:50;2.20;99.90
30186;DHT22;31152;49.190;8.122;2023-04-06T00:21:17;2.10;99.90
30186;DHT22;31152;49.190;8.122;2023-04-06T00:23:46;2.10;99.90
30186;DHT22;31152;49.190;8.122;2023-04-06T00:26:13;2.10;99.90
30186;DHT22;31152;49.190;8.122;2023-04-06T00:28:39;2.00;99.90
30186;DHT22;31152;49.190;8.122;2023-04-06T00:31:08;1.90;99.90
30186;DHT22;31152;49.190;8.122;2023-04-06T00:33:35;1.90;99.90
30186;DHT22;31152;49.190;8.122;2023-04-06T00:36:02;1.90;99.90
30186;DHT22;31152;49.190;8.122;2023-04-06T00:38:29;1.90;99.90
30186;DHT22;31152;49.190;8.122;2023-04-06T00:40:58;1.90;99.90
30186;DHT22;31152;49.190;8.122;2023-04-06T00:43:25;1.90;99.90
30186;DHT22;31152;49.190;8.122;2023-04-06T00:45:52;1.90;99.90
30186;DHT22;31152;49.190;8.122;2023-04-06T00:48:21;1.80;99.90
30186;DHT22;31152;49.190;8.122;2023-04-06T00:50:48;1.90;99.90
30186;DHT22;31152;49.190;8.122;2023-04-06T00:53:15;1.80;99.90
30186;DHT22;31152;49.190;8.122;2023-04-06T00:55:41;1.80;99.90
30186;DHT22;31152;49.190;8.122;2023-04-06T00:58:10;1.70;99.90
30186;DHT22;31152;49.190;8.122;2023-04-06T01:00:37;1.70;99.90
30186;DHT22;31152;49.190;8.122;2023-04-06T01:03:04;1.70;99.90
30186;DHT22;31152;49.190;8.122;2023-04-06T01:05:34;1.70;99.90
30186;DHT22;31152;49.190;8.122;2023-04-06T01:08:07;1.70;99.90
30186;DHT22;31152;49.190;8.122;2023-04-06T01:10:38;1.70;99.90
30186;DHT22;31152;49.190;8.122;2023-04-06T01:13:04;1.80;99.90
30186;DHT22;31152;49.190;8.122;2023-04-06T01:15:37;1.80;99.90
30186;DHT22;31152;49.190;8.122;2023-04-06T01:18:05;1.80;99.90
30186;DHT22;31152;49.190;8.122;2023-04-06T01:20:33;1.80;99.90
30186;DHT22;31152;49.190;8.122;2023-04-06T01:23:00;1.80;99.90
30186;DHT22;31152;49.190;8.122;2023-04-06T01:25:26;1.70;99.90
30186;DHT22;31152;49.190;8.122;2023-04-06T01:27:53;1.60;99.90
30186;DHT22;31152;49.190;8.122;2023-04-06T01:30:20;1.70;99.90
30186;DHT22;31152;49.190;8.122;2023-04-06T01:32:47;1.60;99.90
30186;DHT22;31152;49.190;8.122;2023-04-06T01:35:14;1.60;99.90
30186;DHT22;31152;49.190;8.122;2023-04-06T01:37:41;1.70;99.90
30186;DHT22;31152;49.190;8.122;2023-04-06T01:40:10;1.60;99.90
30186;DHT22;31152;49.190;8.122;2023-04-06T01:42:40;1.60;99.90
30186;DHT22;31152;49.190;8.122;2023-04-06T01:45:09;1.50;99.90
30186;DHT22;31152;49.190;8.122;2023-04-06T01:47:39;1.50;99.90
30186;DHT22;31152;49.190;8.122;2023-04-06T01:50:06;1.50;99.90
30186;DHT22;31152;49.190;8.122;2023-04-06T01:52:34;1.50;99.90
30186;DHT22;31152;49.190;8.122;2023-04-06T01:55:01;1.50;99.90
30186;DHT22;31152;49.190;8.122;2023-04-06T01:57:27;1.50;99.90
30186;DHT22;31152;49.190;8.122;2023-04-06T01:59:54;1.40;99.90
30186;DHT22;31152;49.190;8.122;2023-04-06T02:02:21;1.50;99.90
30186;DHT22;31152;49.190;8.122;2023-04-06T02:04:48;1.40;99.90
30186;DHT22;31152;49.190;8.122;2023-04-06T02:07:15;1.40;99.90
30186;DHT22;31152;49.190;8.122;2023-04-06T02:09:41;1.50;99.90
30186;DHT22;31152;49.190;8.122;2023-04-06T02:12:10;1.50;99.90
30186;DHT22;31152;49.190;8.122;2023-04-06T02:14:37;1.50;99.90
30186;DHT22;31152;49.190;8.122;2023-04-06T02:17:04;1.40;99.90
30186;DHT22;31152;49.190;8.122;2023-04-06T02:19:30;1.40;99.90
30186;DHT22;31152;49.190;8.122;2023-04-06T02:21:58;1.30;99.90
30186;DHT22;31152;49.190;8.122;2023-04-06T02:24:26;1.30;99.90
30186;DHT22;31152;49.190;8.122;2023-04-06T02:26:53;1.30;99.90
30186;DHT22;31152;49.190;8.122;2023-04-06T02:29:22;1.40;99.90
30186;DHT22;31152;49.190;8.122;2023-04-06T02:31:51;1.40;99.90
30186;DHT22;31152;49.190;8.122;2023-04-06T02:34:18;1.40;99.90
30186;DHT22;31152;49.190;8.122;2023-04-06T02:36:49;1.50;99.90
30186;DHT22;31152;49.190;8.122;2023-04-06T02:39:17;1.50;99.90
30186;DHT22;31152;49.190;8.122;2023-04-06T02:41:44;1.50;99.90
30186;DHT22;31152;49.190;8.122;2023-04-06T02:44:11;1.50;99.90
30186;DHT22;31152;49.190;8.122;2023-04-06T02:46:37;1.40;99.90
30186;DHT22;31152;49.190;8.122;2023-04-06T02:49:04;1.40;99.90
30186;DHT22;31152;49.190;8.122;2023-04-06T02:51:32;1.40;99.90
30186;DHT22;31152;49.190;8.122;2023-04-06T02:53:59;1.30;99.90
30186;DHT22;31152;49.190;8.122;2023-04-06T02:56:26;1.30;99.90
30186;DHT22;31152;49.190;8.122;2023-04-06T02:58:53;1.30;99.90
30186;DHT22;31152;49.190;8.122;2023-04-06T03:01:22;1.20;99.90
30186;DHT22;31152;49.190;8.122;2023-04-06T03:03:51;1.20;99.90
30186;DHT22;31152;49.190;8.122;2023-04-06T03:06:18;1.20;99.90
30186;DHT22;31152;49.190;8.122;2023-04-06T03:08:45;1.10;99.90
30186;DHT22;31152;49.190;8.122;2023-04-06T03:11:11;1.10;99.90
30186;DHT22;31152;49.190;8.122;2023-04-06T03:13:41;1.10;99.90
30186;DHT22;31152;49.190;8.122;2023-04-06T03:16:07;1.20;99.90
30186;DHT22;31152;49.190;8.122;2023-04-06T03:18:37;1.20;99.90
30186;DHT22;31152;49.190;8.122;2023-04-06T03:21:06;1.10;99.90
30186;DHT22;31152;49.190;8.122;2023-04-06T03:23:35;1.10;99.90
30186;DHT22;31152;49.190;8.122;2023-04-06T03:26:02;1.10;99.90
30186;DHT22;31152;49.190;8.122;2023-04-06T03:28:30;1.10;99.90
30186;DHT22;31152;49.190;8.122;2023-04-06T03:30:56;1.20;99.90
30186;DHT22;31152;49.190;8.122;2023-04-06T03:33:23;1.20;99.90
30186;DHT22;31152;49.190;8.122;2023-04-06T03:35:50;1.10;99.90
30186;DHT22;31152;49.190;8.122;2023-04-06T03:38:19;1.10;99.90
30186;DHT22;31152;49.190;8.122;2023-04-06T03:40:46;1.10;99.90
30186;DHT22;31152;49.190;8.122;2023-04-06T03:43:16;1.10;99.90
30186;DHT22;31152;49.190;8.122;2023-04-06T03:45:42;1.00;99.90
30186;DHT22;31152;49.190;8.122;2023-04-06T03:48:09;1.00;99.90
30186;DHT22;31152;49.190;8.122;2023-04-06T03:50:38;1.00;99.90
30186;DHT22;31152;49.190;8.122;2023-04-06T03:53:05;1.00;99.90
30186;DHT22;31152;49.190;8.122;2023-04-06T03:55:32;1.00;99.90
30186;DHT22;31152;49.190;8.122;2023-04-06T03:57:59;1.00;99.90
30186;DHT22;31152;49.190;8.122;2023-04-06T04:00:26;1.00;99.90
30186;DHT22;31152;49.190;8.122;2023-04-06T04:02:53;1.00;99.90
30186;DHT22;31152;49.190;8.122;2023-04-06T04:05:19;1.10;99.90
30186;DHT22;31152;49.190;8.122;2023-04-06T04:07:52;1.00;99.90
30186;DHT22;31152;49.190;8.122;2023-04-06T04:10:18;1.00;99.90
30186;DHT22;31152;49.190;8.122;2023-04-06T04:12:45;1.00;99.90
30186;DHT22;31152;49.190;8.122;2023-04-06T04:15:14;1.00;99.90
30186;DHT22;31152;49.190;8.122;2023-04-06T04:17:41;1.00;99.90
30186;DHT22;31152;49.190;8.122;2023-04-06T04:20:13;1.00;99.90
30186;DHT22;31152;49.190;8.122;2023-04-06T04:22:40;1.00;99.90
30186;DHT22;31152;49.190;8.122;2023-04-06T04:25:07;0.90;99.90
30186;DHT22;31152;49.190;8.122;2023-04-06T04:27:34;0.90;99.90
30186;DHT22;31152;49.190;8.122;2023-04-06T04:30:01;0.90;99.90
30186;DHT22;31152;49.190;8.122;2023-04-06T04:32:33;0.80;99.90
30186;DHT22;31152;49.190;8.122;2023-04-06T04:34:59;0.80;99.90
30186;DHT22;31152;49.190;8.122;2023-04-06T04:37:28;0.80;99.90
30186;DHT22;31152;49.190;8.122;2023-04-06T04:39:58;0.70;99.90
30186;DHT22;31152;49.190;8.122;2023-04-06T04:42:24;0.70;99.90
30186;DHT22;31152;49.190;8.122;2023-04-06T04:44:51;0.60;99.90
30186;DHT22;31152;49.190;8.122;2023-04-06T04:47:18;0.70;99.90
30186;DHT22;31152;49.190;8.122;2023-04-06T04:49:48;0.70;99.90
30186;DHT22;31152;49.190;8.122;2023-04-06T04:52:14;0.70;99.90
30186;DHT22;31152;49.190;8.122;2023-04-06T04:54:41;0.70;99.90
30186;DHT22;31152;49.190;8.122;2023-04-06T04:57:09;0.70;99.90
30186;DHT22;31152;49.190;8.122;2023-04-06T04:59:35;0.70;99.90
30186;DHT22;31152;49.190;8.122;2023-04-06T05:02:02;0.70;99.90
30186;DHT22;31152;49.190;8.122;2023-04-06T05:04:32;0.70;99.90
30186;DHT22;31152;49.190;8.122;2023-04-06T05:07:09;0.70;99.90
30186;DHT22;31152;49.190;8.122;2023-04-06T05:09:36;0.60;99.90
30186;DHT22;31152;49.190;8.122;2023-04-06T05:12:03;0.60;99.90
30186;DHT22;31152;49.190;8.122;2023-04-06T05:14:29;0.50;99.90
30186;DHT22;31152;49.190;8.122;2023-04-06T05:16:56;0.50;99.90
30186;DHT22;31152;49.190;8.122;2023-04-06T05:19:25;0.50;99.90
30186;DHT22;31152;49.190;8.122;2023-04-06T05:21:52;0.60;99.90
30186;DHT22;31152;49.190;8.122;2023-04-06T05:24:19;0.60;99.90
30186;DHT22;31152;49.190;8.122;2023-04-06T05:26:46;0.70;99.90
30186;DHT22;31152;49.190;8.122;2023-04-06T05:29:12;0.80;99.90
30186;DHT22;31152;49.190;8.122;2023-04-06T05:31:39;0.80;99.90
30186;DHT22;31152;49.190;8.122;2023-04-06T05:34:09;0.90;99.90
30186;DHT22;31152;49.190;8.122;2023-04-06T05:36:36;1.00;99.90
30186;DHT22;31152;49.190;8.122;2023-04-06T05:39:03;1.00;99.90
30186;DHT22;31152;49.190;8.122;2023-04-06T05:41:30;1.00;99.90
30186;DHT22;31152;49.190;8.122;2023-04-06T05:43:59;1.10;99.90
30186;DHT22;31152;49.190;8.122;2023-04-06T05:46:28;1.20;99.90
30186;DHT22;31152;49.190;8.122;2023-04-06T05:48:55;1.20;99.90
30186;DHT22;31152;49.190;8.122;2023-04-06T05:51:22;1.20;99.90
30186;DHT22;31152;49.190;8.122;2023-04-06T05:53:49;1.30;99.90
30186;DHT22;31152;49.190;8.122;2023-04-06T05:56:18;1.30;99.90
30186;DHT22;31152;49.190;8.122;2023-04-06T05:58:45;1.30;99.90
30186;DHT22;31152;49.190;8.122;2023-04-06T06:01:12;1.40;99.90
30186;DHT22;31152;49.190;8.122;2023-04-06T06:03:39;1.50;99.90
30186;DHT22;31152;49.190;8.122;2023-04-06T06:06:06;1.70;99.90
30186;DHT22;31152;49.190;8.122;2023-04-06T06:08:33;1.70;99.90
30186;DHT22;31152;49.190;8.122;2023-04-06T06:11:02;1.80;99.90
30186;DHT22;31152;49.190;8.122;2023-04-06T06:13:29;1.90;99.90
30186;DHT22;31152;49.190;8.122;2023-04-06T06:15:56;2.00;99.90
30186;DHT22;31152;49.190;8.122;2023-04-06T06:18:23;2.10;99.90
30186;DHT22;31152;49.190;8.122;2023-04-06T06:20:49;2.20;99.90
30186;DHT22;31152;49.190;8.122;2023-04-06T06:23:18;2.20;99.90
30186;DHT22;31152;49.190;8.122;2023-04-06T06:25:48;2.40;99.90
30186;DHT22;31152;49.190;8.122;2023-04-06T06:28:14;2.50;99.90
30186;DHT22;31152;49.190;8.122;2023-04-06T06:30:44;2.70;99.90
30186;DHT22;31152;49.190;8.122;2023-04-06T06:33:11;2.80;99.90
30186;DHT22;31152;49.190;8.122;2023-04-06T06:35:37;2.80;99.90
30186;DHT22;31152;49.190;8.122;2023-04-06T06:38:04;2.90;99.90
30186;DHT22;31152;49.190;8.122;2023-04-06T06:40:32;3.00;99.90
30186;DHT22;31152;49.190;8.122;2023-04-06T06:42:59;3.10;99.90
30186;DHT22;31152;49.190;8.122;2023-04-06T06:45:26;3.20;99.90
30186;DHT22;31152;49.190;8.122;2023-04-06T06:47:53;3.30;99.90
30186;DHT22;31152;49.190;8.122;2023-04-06T06:50:21;3.40;99.90
30186;DHT22;31152;49.190;8.122;2023-04-06T06:52:50;3.50;99.90
30186;DHT22;31152;49.190;8.122;2023-04-06T06:55:17;3.70;99.90
30186;DHT22;31152;49.190;8.122;2023-04-06T06:57:46;3.90;99.90
30186;DHT22;31152;49.190;8.122;2023-04-06T07:00:13;4.00;99.90
30186;DHT22;31152;49.190;8.122;2023-04-06T07:02:43;4.00;99.90
30186;DHT22;31152;49.190;8.122;2023-04-06T07:05:09;3.90;99.90
30186;DHT22;31152;49.190;8.122;2023-04-06T07:07:53;3.90;99.90
30186;DHT22;31152;49.190;8.122;2023-04-06T07:10:22;3.90;99.90
30186;DHT22;31152;49.190;8.122;2023-04-06T07:12:52;3.90;99.90
30186;DHT22;31152;49.190;8.122;2023-04-06T07:15:23;4.00;99.90
30186;DHT22;31152;49.190;8.122;2023-04-06T07:17:50;4.00;99.90
30186;DHT22;31152;49.190;8.122;2023-04-06T07:20:18;4.20;99.90
30186;DHT22;31152;49.190;8.122;2023-04-06T07:22:45;4.30;99.90
30186;DHT22;31152;49.190;8.122;2023-04-06T07:25:15;4.50;99.90
30186;DHT22;31152;49.190;8.122;2023-04-06T07:27:41;4.60;99.90
30186;DHT22;31152;49.190;8.122;2023-04-06T07:30:11;4.80;99.90
30186;DHT22;31152;49.190;8.122;2023-04-06T07:32:40;5.00;99.90
30186;DHT22;31152;49.190;8.122;2023-04-06T07:35:07;5.10;99.90
30186;DHT22;31152;49.190;8.122;2023-04-06T07:37:34;5.30;99.90
30186;DHT22;31152;49.190;8.122;2023-04-06T07:40:03;5.50;99.90
30186;DHT22;31152;49.190;8.122;2023-04-06T07:42:30;5.70;99.90
30186;DHT22;31152;49.190;8.122;2023-04-06T07:44:57;5.80;99.90
30186;DHT22;31152;49.190;8.122;2023-04-06T07:47:26;5.90;99.80
30186;DHT22;31152;49.190;8.122;2023-04-06T07:49:54;6.00;99.90
30186;DHT22;31152;49.190;8.122;2023-04-06T07:52:25;6.10;99.40
30186;DHT22;31152;49.190;8.122;2023-04-06T07:54:51;6.20;98.90
30186;DHT22;31152;49.190;8.122;2023-04-06T07:57:18;6.40;98.70
30186;DHT22;31152;49.190;8.122;2023-04-06T07:59:47;6.40;98.10
30186;DHT22;31152;49.190;8.122;2023-04-06T08:02:21;6.60;98.50
30186;DHT22;31152;49.190;8.122;2023-04-06T08:04:48;6.70;98.10
30186;DHT22;31152;49.190;8.122;2023-04-06T08:07:15;6.90;99.00
30186;DHT22;31152;49.190;8.122;2023-04-06T08:09:42;7.00;98.20
30186;DHT22;31152;49.190;8.122;2023-04-06T08:12:11;7.20;97.70
30186;DHT22;31152;49.190;8.122;2023-04-06T08:14:38;7.40;96.90
30186;DHT22;31152;49.190;8.122;2023-04-06T08:17:05;7.50;96.70
30186;DHT22;31152;49.190;8.122;2023-04-06T08:19:32;7.60;96.00
30186;DHT22;31152;49.190;8.122;2023-04-06T08:21:59;7.60;95.50
30186;DHT22;31152;49.190;8.122;2023-04-06T08:24:26;7.70;95.40
30186;DHT22;31152;49.190;8.122;2023-04-06T08:26:53;8.00;94.60
30186;DHT22;31152;49.190;8.122;2023-04-06T08:29:19;8.10;94.40
30186;DHT22;31152;49.190;8.122;2023-04-06T08:31:46;8.20;94.20
30186;DHT22;31152;49.190;8.122;2023-04-06T08:34:13;8.30;93.60
30186;DHT22;31152;49.190;8.122;2023-04-06T08:36:42;8.50;94.10
30186;DHT22;31152;49.190;8.122;2023-04-06T08:39:09;8.50;93.50
30186;DHT22;31152;49.190;8.122;2023-04-06T08:41:36;8.80;92.40
30186;DHT22;31152;49.190;8.122;2023-04-06T08:44:05;8.80;91.80
30186;DHT22;31152;49.190;8.122;2023-04-06T08:46:32;8.90;91.90
30186;DHT22;31152;49.190;8.122;2023-04-06T08:49:02;9.00;91.70
30186;DHT22;31152;49.190;8.122;2023-04-06T08:51:30;9.00;90.60
30186;DHT22;31152;49.190;8.122;2023-04-06T08:53:58;9.10;91.20
30186;DHT22;31152;49.190;8.122;2023-04-06T08:56:27;9.10;90.70
30186;DHT22;31152;49.190;8.122;2023-04-06T08:58:55;9.10;90.50
30186;DHT22;31152;49.190;8.122;2023-04-06T09:01:29;9.20;91.10
30186;DHT22;31152;49.190;8.122;2023-04-06T09:03:58;9.40;89.90
30186;DHT22;31152;49.190;8.122;2023-04-06T09:06:28;9.30;90.00
30186;DHT22;31152;49.190;8.122;2023-04-06T09:08:55;9.70;90.60
30186;DHT22;31152;49.190;8.122;2023-04-06T09:11:24;10.00;90.20
30186;DHT22;31152;49.190;8.122;2023-04-06T09:13:53;10.10;89.40
30186;DHT22;31152;49.190;8.122;2023-04-06T09:16:23;10.20;88.80
30186;DHT22;31152;49.190;8.122;2023-04-06T09:18:50;10.10;88.50
30186;DHT22;31152;49.190;8.122;2023-04-06T09:21:18;10.20;89.00
30186;DHT22;31152;49.190;8.122;2023-04-06T09:23:57;10.40;88.60
30186;DHT22;31152;49.190;8.122;2023-04-06T09:26:26;10.30;87.30
30186;DHT22;31152;49.190;8.122;2023-04-06T09:28:55;10.40;87.40
30186;DHT22;31152;49.190;8.122;2023-04-06T09:31:30;10.50;85.80
30186;DHT22;31152;49.190;8.122;2023-04-06T09:33:59;10.90;86.80
30186;DHT22;31152;49.190;8.122;2023-04-06T09:36:34;11.10;85.70
30186;DHT22;31152;49.190;8.122;2023-04-06T09:39:03;11.30;84.60
30186;DHT22;31152;49.190;8.122;2023-04-06T09:41:34;11.60;82.20
30186;DHT22;31152;49.190;8.122;2023-04-06T09:44:09;11.50;78.60
30186;DHT22;31152;49.190;8.122;2023-04-06T09:46:41;11.50;79.20
30186;DHT22;31152;49.190;8.122;2023-04-06T09:49:27;11.50;76.70
30186;DHT22;31152;49.190;8.122;2023-04-06T09:51:59;11.40;74.00
30186;DHT22;31152;49.190;8.122;2023-04-06T09:54:29;11.20;76.70
30186;DHT22;31152;49.190;8.122;2023-04-06T09:59:48;11.30;75.30
30186;DHT22;31152;49.190;8.122;2023-04-06T10:07:51;12.00;71.00
30186;DHT22;31152;49.190;8.122;2023-04-06T10:10:27;11.90;69.70
30186;DHT22;31152;49.190;8.122;2023-04-06T10:12:55;12.00;66.80
30186;DHT22;31152;49.190;8.122;2023-04-06T10:15:23;12.00;68.50
30186;DHT22;31152;49.190;8.122;2023-04-06T10:17:53;12.40;66.40
30186;DHT22;31152;49.190;8.122;2023-04-06T10:23:17;12.80;61.20
30186;DHT22;31152;49.190;8.122;2023-04-06T10:25:59;12.90;59.40
30186;DHT22;31152;49.190;8.122;2023-04-06T10:28:31;12.80;59.80
30186;DHT22;31152;49.190;8.122;2023-04-06T10:30:59;12.50;58.90
30186;DHT22;31152;49.190;8.122;2023-04-06T10:33:27;12.40;58.40
30186;DHT22;31152;49.190;8.122;2023-04-06T10:35:56;12.40;59.70
30186;DHT22;31152;49.190;8.122;2023-04-06T10:38:40;12.30;59.10
30186;DHT22;31152;49.190;8.122;2023-04-06T10:41:11;12.70;60.00
30186;DHT22;31152;49.190;8.122;2023-04-06T10:43:40;12.80;58.10
30186;DHT22;31152;49.190;8.122;2023-04-06T10:46:09;12.90;57.60
30186;DHT22;31152;49.190;8.122;2023-04-06T10:48:40;13.20;59.00
30186;DHT22;31152;49.190;8.122;2023-04-06T10:51:13;13.40;57.30
30186;DHT22;31152;49.190;8.122;2023-04-06T10:53:44;13.30;55.00
30186;DHT22;31152;49.190;8.122;2023-04-06T10:56:14;13.50;54.30
30186;DHT22;31152;49.190;8.122;2023-04-06T10:58:45;13.30;53.10
30186;DHT22;31152;49.190;8.122;2023-04-06T11:01:15;13.50;55.60
30186;DHT22;31152;49.190;8.122;2023-04-06T11:03:47;13.90;53.70
30186;DHT22;31152;49.190;8.122;2023-04-06T11:06:19;14.30;52.40
30186;DHT22;31152;49.190;8.122;2023-04-06T11:08:49;14.40;50.90
30186;DHT22;31152;49.190;8.122;2023-04-06T11:11:18;14.20;51.50
30186;DHT22;31152;49.190;8.122;2023-04-06T11:13:52;14.30;51.20
30186;DHT22;31152;49.190;8.122;2023-04-06T11:16:25;14.20;49.60
30186;DHT22;31152;49.190;8.122;2023-04-06T11:18:56;14.00;49.50
30186;DHT22;31152;49.190;8.122;2023-04-06T11:24:20;14.30;51.30
30186;DHT22;31152;49.190;8.122;2023-04-06T11:26:55;14.20;50.20
30186;DHT22;31152;49.190;8.122;2023-04-06T11:29:27;14.10;49.50
30186;DHT22;31152;49.190;8.122;2023-04-06T11:32:01;13.80;50.50
30186;DHT22;31152;49.190;8.122;2023-04-06T11:34:30;13.80;51.70
30186;DHT22;31152;49.190;8.122;2023-04-06T11:37:01;13.70;50.70
30186;DHT22;31152;49.190;8.122;2023-04-06T11:39:50;13.50;50.30
30186;DHT22;31152;49.190;8.122;2023-04-06T11:42:25;13.50;51.10
30186;DHT22;31152;49.190;8.122;2023-04-06T11:44:54;13.50;50.20
30186;DHT22;31152;49.190;8.122;2023-04-06T11:47:28;13.40;51.50
30186;DHT22;31152;49.190;8.122;2023-04-06T11:49:55;13.40;52.10
30186;DHT22;31152;49.190;8.122;2023-04-06T11:52:27;13.30;50.40
30186;DHT22;31152;49.190;8.122;2023-04-06T11:54:54;13.30;50.90
30186;DHT22;31152;49.190;8.122;2023-04-06T11:57:24;13.40;49.80
30186;DHT22;31152;49.190;8.122;2023-04-06T11:59:52;13.50;49.70
30186;DHT22;31152;49.190;8.122;2023-04-06T12:02:19;13.60;50.10
30186;DHT22;31152;49.190;8.122;2023-04-06T12:04:46;13.70;49.00
30186;DHT22;31152;49.190;8.122;2023-04-06T12:07:13;13.90;49.20
30186;DHT22;31152;49.190;8.122;2023-04-06T12:09:40;14.00;49.80
30186;DHT22;31152;49.190;8.122;2023-04-06T12:12:07;14.10;48.70
30186;DHT22;31152;49.190;8.122;2023-04-06T12:14:36;13.90;49.00
30186;DHT22;31152;49.190;8.122;2023-04-06T12:17:02;14.00;49.70
30186;DHT22;31152;49.190;8.122;2023-04-06T12:19:32;14.10;49.80
30186;DHT22;31152;49.190;8.122;2023-04-06T12:21:59;14.00;48.10
30186;DHT22;31152;49.190;8.122;2023-04-06T12:24:27;14.00;48.40
30186;DHT22;31152;49.190;8.122;2023-04-06T12:26:54;14.00;48.50
30186;DHT22;31152;49.190;8.122;2023-04-06T12:29:37;14.20;49.00
30186;DHT22;31152;49.190;8.122;2023-04-06T12:32:04;14.10;47.80
30186;DHT22;31152;49.190;8.122;2023-04-06T12:34:32;14.20;48.50
30186;DHT22;31152;49.190;8.122;2023-04-06T12:36:59;14.30;49.40
30186;DHT22;31152;49.190;8.122;2023-04-06T12:39:27;14.30;48.80
30186;DHT22;31152;49.190;8.122;2023-04-06T12:41:54;14.40;48.90
30186;DHT22;31152;49.190;8.122;2023-04-06T12:44:22;14.60;50.90
30186;DHT22;31152;49.190;8.122;2023-04-06T12:46:52;14.50;48.50
30186;DHT22;31152;49.190;8.122;2023-04-06T12:49:19;14.60;49.40
30186;DHT22;31152;49.190;8.122;2023-04-06T12:51:46;14.50;48.70
30186;DHT22;31152;49.190;8.122;2023-04-06T12:54:12;14.50;48.70
30186;DHT22;31152;49.190;8.122;2023-04-06T12:56:42;14.60;49.40
30186;DHT22;31152;49.190;8.122;2023-04-06T12:59:08;14.60;50.20
30186;DHT22;31152;49.190;8.122;2023-04-06T13:01:35;14.60;49.70
30186;DHT22;31152;49.190;8.122;2023-04-06T13:04:02;14.80;50.30
30186;DHT22;31152;49.190;8.122;2023-04-06T13:06:29;15.00;49.10
30186;DHT22;31152;49.190;8.122;2023-04-06T13:08:56;15.10;48.30
30186;DHT22;31152;49.190;8.122;2023-04-06T13:11:23;15.00;48.80
30186;DHT22;31152;49.190;8.122;2023-04-06T13:13:54;15.00;49.30
30186;DHT22;31152;49.190;8.122;2023-04-06T13:16:23;14.90;49.30
30186;DHT22;31152;49.190;8.122;2023-04-06T13:18:52;14.70;49.20
30186;DHT22;31152;49.190;8.122;2023-04-06T13:21:21;14.50;49.50
30186;DHT22;31152;49.190;8.122;2023-04-06T13:23:48;14.50;50.30
30186;DHT22;31152;49.190;8.122;2023-04-06T13:26:15;14.70;50.90
30186;DHT22;31152;49.190;8.122;2023-04-06T13:28:45;14.60;49.80
30186;DHT22;31152;49.190;8.122;2023-04-06T13:31:12;14.80;50.50
30186;DHT22;31152;49.190;8.122;2023-04-06T13:33:39;14.80;49.10
30186;DHT22;31152;49.190;8.122;2023-04-06T13:36:07;14.80;49.50
30186;DHT22;31152;49.190;8.122;2023-04-06T13:38:34;14.60;49.90
30186;DHT22;31152;49.190;8.122;2023-04-06T13:41:01;14.50;49.70
30186;DHT22;31152;49.190;8.122;2023-04-06T13:43:28;14.40;49.50
30186;DHT22;31152;49.190;8.122;2023-04-06T13:45:56;14.10;49.30
30186;DHT22;31152;49.190;8.122;2023-04-06T13:48:24;14.00;50.30
30186;DHT22;31152;49.190;8.122;2023-04-06T13:50:52;14.10;50.40
30186;DHT22;31152;49.190;8.122;2023-04-06T13:53:19;14.10;50.90
30186;DHT22;31152;49.190;8.122;2023-04-06T13:55:54;14.10;51.10
30186;DHT22;31152;49.190;8.122;2023-04-06T13:58:22;14.00;51.90
30186;DHT22;31152;49.190;8.122;2023-04-06T14:00:48;14.00;52.00
30186;DHT22;31152;49.190;8.122;2023-04-06T14:03:18;13.90;52.40
30186;DHT22;31152;49.190;8.122;2023-04-06T14:05:48;13.80;52.30
30186;DHT22;31152;49.190;8.122;2023-04-06T14:08:15;13.70;53.50
30186;DHT22;31152;49.190;8.122;2023-04-06T14:10:41;13.70;54.50
30186;DHT22;31152;49.190;8.122;2023-04-06T14:13:09;13.60;54.10
30186;DHT22;31152;49.190;8.122;2023-04-06T14:15:38;13.60;54.00
30186;DHT22;31152;49.190;8.122;2023-04-06T14:18:05;13.60;54.60
30186;DHT22;31152;49.190;8.122;2023-04-06T14:20:32;13.50;54.60
30186;DHT22;31152;49.190;8.122;2023-04-06T14:23:03;13.40;54.80
30186;DHT22;31152;49.190;8.122;2023-04-06T14:25:30;13.50;56.00
30186;DHT22;31152;49.190;8.122;2023-04-06T14:28:01;13.50;55.10
30186;DHT22;31152;49.190;8.122;2023-04-06T14:30:30;13.50;55.70
30186;DHT22;31152;49.190;8.122;2023-04-06T14:32:57;13.40;55.50
30186;DHT22;31152;49.190;8.122;2023-04-06T14:35:25;13.30;56.30
30186;DHT22;31152;49.190;8.122;2023-04-06T14:37:54;13.40;56.40
30186;DHT22;31152;49.190;8.122;2023-04-06T14:40:24;13.40;56.60
30186;DHT22;31152;49.190;8.122;2023-04-06T14:42:51;13.40;57.60
30186;DHT22;31152;49.190;8.122;2023-04-06T14:45:18;13.50;58.20
30186;DHT22;31152;49.190;8.122;2023-04-06T14:47:46;13.50;57.70
30186;DHT22;31152;49.190;8.122;2023-04-06T14:50:13;13.50;58.10
30186;DHT22;31152;49.190;8.122;2023-04-06T14:52:42;13.40;57.80
30186;DHT22;31152;49.190;8.122;2023-04-06T14:55:12;13.30;57.20
30186;DHT22;31152;49.190;8.122;2023-04-06T14:57:40;13.40;58.70
30186;DHT22;31152;49.190;8.122;2023-04-06T15:00:07;13.30;57.90
30186;DHT22;31152;49.190;8.122;2023-04-06T15:02:36;13.30;59.10
30186;DHT22;31152;49.190;8.122;2023-04-06T15:05:04;13.30;57.90
30186;DHT22;31152;49.190;8.122;2023-04-06T15:07:32;13.30;58.20
30186;DHT22;31152;49.190;8.122;2023-04-06T15:09:59;13.20;57.80
30186;DHT22;31152;49.190;8.122;2023-04-06T15:12:26;13.20;59.10
30186;DHT22;31152;49.190;8.122;2023-04-06T15:14:52;13.10;58.70
30186;DHT22;31152;49.190;8.122;2023-04-06T15:17:19;13.10;59.00
30186;DHT22;31152;49.190;8.122;2023-04-06T15:19:46;13.00;60.00
30186;DHT22;31152;49.190;8.122;2023-04-06T15:22:13;13.00;59.70
30186;DHT22;31152;49.190;8.122;2023-04-06T15:24:42;13.00;59.30
30186;DHT22;31152;49.190;8.122;2023-04-06T15:27:11;13.00;59.10
30186;DHT22;31152;49.190;8.122;2023-04-06T15:29:38;13.10;59.40
30186;DHT22;31152;49.190;8.122;2023-04-06T15:32:05;13.00;59.70
30186;DHT22;31152;49.190;8.122;2023-04-06T15:34:34;13.10;60.30
30186;DHT22;31152;49.190;8.122;2023-04-06T15:37:01;13.00;61.20
30186;DHT22;31152;49.190;8.122;2023-04-06T15:39:28;13.00;62.20
30186;DHT22;31152;49.190;8.122;2023-04-06T15:41:57;13.00;61.40
30186;DHT22;31152;49.190;8.122;2023-04-06T15:44:24;13.00;62.20
30186;DHT22;31152;49.190;8.122;2023-04-06T15:46:51;12.90;61.20
30186;DHT22;31152;49.190;8.122;2023-04-06T15:49:19;12.80;61.00
30186;DHT22;31152;49.190;8.122;2023-04-06T15:51:50;12.80;61.20
30186;DHT22;31152;49.190;8.122;2023-04-06T15:54:17;12.70;61.90
30186;DHT22;31152;49.190;8.122;2023-04-06T15:56:49;12.70;63.00
30186;DHT22;31152;49.190;8.122;2023-04-06T15:59:16;12.70;63.40
30186;DHT22;31152;49.190;8.122;2023-04-06T16:01:45;12.60;64.20